Time;durP1;ratioP1;P1;durP2;ratioP2;P2;SDS_P1;SDS_P2;PMS_P1;PMS_P2;Temp;Humidity;BMP_temperature;BMP_pressure;BME280_temperature;BME280_humidity;BME280_pressure;Samples;Min_cycle;Max_cycle;Signal;HPM_P1;HPM_P2
2022/07/16 00:02:19;;;;;;;7.83;2.77;;;;;;;9.71;91.37;98341.22;5056622;28;20447;-62
2022/07/16 00:04:46;;;;;;;9.80;3.17;;;;;;;9.66;91.71;98335.38;5050010;28;20049;-62
2022/07/16 00:07:14;;;;;;;7.50;3.70;;;;;;;9.65;92.26;98345.03;5044233;28;20132;-61
2022/07/16 00:09:41;;;;;;;7.07;2.97;;;;;;;9.65;92.09;98341.53;5044447;28;20045;-62
2022/07/16 00:12:09;;;;;;;9.10;3.80;;;;;;;9.72;91.15;98340.28;5045570;28;20041;-61
2022/07/16 00:14:36;;;;;;;6.10;3.07;;;;;;;9.73;91.63;98344.63;5044367;28;20349;-62
2022/07/16 00:17:04;;;;;;;5.57;3.10;;;;;;;9.65;91.76;98344.16;5045853;28;20395;-63
2022/07/16 00:19:32;;;;;;;7.50;3.50;;;;;;;9.58;92.03;98341.03;5045907;28;20048;-60
2022/07/16 00:22:00;;;;;;;7.53;3.37;;;;;;;9.55;92.69;98337.75;5044086;28;20049;-61
2022/07/16 00:24:27;;;;;;;12.17;2.90;;;;;;;9.50;92.82;98337.13;5044961;28;20343;-62
2022/07/16 00:26:55;;;;;;;7.10;3.33;;;;;;;9.47;92.97;98338.16;5046096;28;20144;-61
2022/07/16 00:29:23;;;;;;;6.47;3.93;;;;;;;9.47;92.86;98334.69;5046404;28;20040;-61
2022/07/16 00:31:51;;;;;;;4.63;3.33;;;;;;;9.46;92.46;98333.00;5056373;28;20048;-62
2022/07/16 00:34:19;;;;;;;9.97;3.33;;;;;;;9.46;92.50;98338.25;5056418;28;20128;-62
2022/07/16 00:36:48;;;;;;;6.77;3.20;;;;;;;9.40;92.37;98325.47;5048455;28;20501;-62
2022/07/16 00:39:34;;;;;;;8.57;3.13;;;;;;;9.37;92.96;98330.88;5034534;28;20045;-62
2022/07/16 00:42:01;;;;;;;8.90;3.13;;;;;;;9.32;92.95;98332.88;5035024;28;20388;-62
2022/07/16 00:44:28;;;;;;;10.90;3.47;;;;;;;9.26;92.95;98327.97;5034948;28;20441;-62
2022/07/16 00:46:56;;;;;;;8.27;3.70;;;;;;;9.24;93.31;98333.28;5034908;28;20054;-62
2022/07/16 00:49:23;;;;;;;8.00;3.20;;;;;;;9.18;93.60;98335.41;5034888;28;20050;-62
2022/07/16 00:51:54;;;;;;;10.47;4.33;;;;;;;9.12;94.09;98326.09;5034727;28;20073;-62
2022/07/16 00:54:22;;;;;;;9.43;4.33;;;;;;;9.14;94.24;98328.63;5036373;28;20080;-62
2022/07/16 00:56:50;;;;;;;9.43;3.20;;;;;;;9.12;94.48;98322.59;5031222;28;20144;-62
2022/07/16 00:59:18;;;;;;;6.80;3.70;;;;;;;9.14;94.23;98315.50;5036450;28;20068;-62
2022/07/16 01:01:46;;;;;;;9.13;3.70;;;;;;;9.16;93.76;98316.25;5036143;28;20045;-62
2022/07/16 01:04:14;;;;;;;8.57;3.57;;;;;;;9.21;93.47;98320.31;5036205;28;20067;-62
2022/07/16 01:06:42;;;;;;;7.27;3.70;;;;;;;9.21;93.30;98316.84;5037105;28;20049;-62
2022/07/16 01:09:11;;;;;;;5.83;3.27;;;;;;;9.19;93.00;98318.72;5040030;28;20052;-62
2022/07/16 01:11:39;;;;;;;5.47;2.93;;;;;;;9.18;93.40;98314.41;5039887;28;20144;-62
2022/07/16 01:14:08;;;;;;;6.40;3.33;;;;;;;9.18;93.13;98320.47;5039988;28;20041;-62
2022/07/16 01:16:36;;;;;;;5.40;3.03;;;;;;;9.24;92.63;98308.81;5040123;28;20049;-62
2022/07/16 01:19:04;;;;;;;9.87;3.60;;;;;;;9.30;91.79;98313.72;5039820;28;20091;-62
2022/07/16 01:21:31;;;;;;;7.37;3.03;;;;;;;9.33;91.91;98303.09;5039911;28;20353;-62
2022/07/16 01:24:00;;;;;;;11.40;4.77;;;;;;;9.35;91.93;98306.47;5039672;28;20057;-62
2022/07/16 01:26:28;;;;;;;3.70;2.77;;;;;;;9.38;91.09;98314.19;5039879;28;20132;-62
2022/07/16 01:28:55;;;;;;;6.27;3.53;;;;;;;9.34;91.62;98316.16;5039885;28;20103;-62
2022/07/16 01:31:23;;;;;;;10.07;3.90;;;;;;;9.35;91.68;98309.97;5039998;28;20047;-62
2022/07/16 01:36:32;;;;;;;13.07;3.90;;;;;;;9.44;90.55;98312.06;5039371;28;20037;-62
2022/07/16 01:39:01;;;;;;;13.97;4.10;;;;;;;9.47;90.10;98308.41;5039704;28;20318;-62
2022/07/16 01:41:28;;;;;;;6.53;2.93;;;;;;;9.51;89.96;98312.59;5039439;28;20075;-62
2022/07/16 01:43:56;;;;;;;7.73;3.97;;;;;;;9.55;89.41;98308.88;5039360;28;20042;-61
2022/07/16 01:46:23;;;;;;;4.13;2.80;;;;;;;9.60;88.82;98307.66;5039344;28;20045;-62
2022/07/16 01:48:50;;;;;;;6.23;2.97;;;;;;;9.58;89.02;98314.78;5039494;28;20465;-62
2022/07/16 01:51:18;;;;;;;11.20;4.27;;;;;;;9.57;88.67;98312.22;5039178;28;20041;-62
2022/07/16 01:53:45;;;;;;;7.20;2.80;;;;;;;9.55;88.83;98322.81;5039378;28;20103;-62
2022/07/16 01:56:14;;;;;;;9.50;3.00;;;;;;;9.57;88.81;98314.84;5039187;28;20037;-62
2022/07/16 01:58:41;;;;;;;10.10;3.17;;;;;;;9.58;88.90;98309.53;5039396;28;20441;-62
2022/07/16 02:01:09;;;;;;;7.50;3.33;;;;;;;9.62;88.93;98307.59;5039151;28;20041;-62
2022/07/16 02:03:37;;;;;;;5.77;3.13;;;;;;;9.63;88.96;98304.03;5039045;28;20052;-62
2022/07/16 02:06:04;;;;;;;8.03;3.17;;;;;;;9.65;88.48;98299.50;5039470;28;20072;-62
2022/07/16 02:08:32;;;;;;;7.40;3.03;;;;;;;9.71;88.66;98304.44;5039057;28;20060;-62
2022/07/16 02:10:59;;;;;;;8.10;2.90;;;;;;;9.71;88.79;98293.91;5038976;28;20049;-62
2022/07/16 02:13:28;;;;;;;10.70;4.73;;;;;;;9.78;88.02;98301.38;5038844;28;20041;-62
2022/07/16 02:15:55;;;;;;;6.73;3.00;;;;;;;9.84;88.45;98300.19;5039035;28;20060;-62
2022/07/16 02:18:23;;;;;;;8.53;2.93;;;;;;;9.85;88.24;98296.63;5038563;28;20069;-62
2022/07/16 02:20:50;;;;;;;8.07;3.13;;;;;;;9.85;88.53;98299.25;5038681;28;20046;-62
2022/07/16 02:23:18;;;;;;;6.60;3.13;;;;;;;9.89;88.05;98295.50;5038602;28;20041;-62
2022/07/16 02:25:46;;;;;;;6.10;3.17;;;;;;;9.92;87.92;98292.72;5038635;28;20056;-62
2022/07/16 02:28:13;;;;;;;11.27;3.43;;;;;;;9.97;87.41;98291.50;5038876;28;20049;-62
2022/07/16 02:30:44;;;;;;;7.27;3.40;;;;;;;10.03;87.79;98292.94;5038484;28;20143;-62
2022/07/16 02:33:13;;;;;;;7.80;3.37;;;;;;;10.04;87.46;98290.22;5038675;28;20056;-62
2022/07/16 02:35:41;;;;;;;9.50;3.47;;;;;;;10.08;87.39;98288.25;5038768;28;20049;-62
2022/07/16 02:38:09;;;;;;;7.80;3.47;;;;;;;10.09;87.61;98285.53;5038673;28;20432;-62
2022/07/16 02:40:39;;;;;;;15.97;3.47;;;;;;;10.10;87.48;98291.66;5038551;28;20100;-62
2022/07/16 02:43:08;;;;;;;6.23;3.23;;;;;;;10.13;87.66;98286.19;5038512;28;20042;-62
2022/07/16 02:45:38;;;;;;;10.57;4.20;;;;;;;10.17;87.19;98282.44;5038243;28;20052;-62
2022/07/16 02:48:07;;;;;;;11.57;3.57;;;;;;;10.22;87.24;98289.13;5038337;28;20056;-62
2022/07/16 02:50:36;;;;;;;5.87;2.73;;;;;;;10.24;86.78;98284.63;5037947;28;20345;-62
2022/07/16 02:53:03;;;;;;;17.17;2.93;;;;;;;10.28;86.53;98288.78;5038146;28;20345;-62
2022/07/16 02:55:31;;;;;;;6.70;3.30;;;;;;;10.29;86.79;98277.31;5038118;28;20043;-62
2022/07/16 02:57:58;;;;;;;14.47;3.33;;;;;;;10.34;86.29;98279.69;5038072;28;20076;-62
2022/07/16 03:00:28;;;;;;;7.53;3.57;;;;;;;10.37;86.20;98280.38;5037922;28;20041;-62
2022/07/16 03:02:55;;;;;;;6.50;2.80;;;;;;;10.42;86.10;98293.22;5037999;28;20053;-62
2022/07/16 03:05:25;;;;;;;8.13;3.27;;;;;;;10.47;85.63;98278.03;5036844;28;20365;-62
2022/07/16 03:07:52;;;;;;;5.87;3.90;;;;;;;10.54;85.37;98292.50;5037985;28;20042;-62
2022/07/16 03:10:20;;;;;;;6.83;2.73;;;;;;;10.59;85.18;98279.91;5037739;28;20400;-62
2022/07/16 03:12:48;;;;;;;7.43;2.97;;;;;;;10.62;84.76;98285.81;5037813;28;20049;-62
2022/07/16 03:15:15;;;;;;;12.23;3.27;;;;;;;10.65;85.33;98284.81;5037912;28;20049;-62
2022/07/16 03:18:15;;;;;;;9.33;3.10;;;;;;;10.66;85.27;98287.31;4957699;29;20147;-62
2022/07/16 03:20:44;;;;;;;6.43;2.90;;;;;;;10.67;84.91;98275.88;4957711;29;20051;-62
2022/07/16 03:23:11;;;;;;;7.10;3.47;;;;;;;10.72;84.32;98279.09;4957787;29;20059;-62
2022/07/16 03:25:41;;;;;;;5.33;2.70;;;;;;;10.77;84.57;98284.09;4957775;29;20055;-62
2022/07/16 03:28:09;;;;;;;7.60;3.17;;;;;;;10.79;84.39;98282.19;4957557;29;20106;-62
2022/07/16 03:30:36;;;;;;;6.60;3.47;;;;;;;10.77;84.65;98281.47;4956709;28;20126;-62
2022/07/16 03:33:04;;;;;;;6.10;3.03;;;;;;;10.76;84.66;98285.88;4957472;29;20554;-62
2022/07/16 03:35:32;;;;;;;9.20;3.10;;;;;;;10.81;84.93;98293.50;4957668;29;20063;-62
2022/07/16 03:40:46;;;;;;;7.80;3.57;;;;;;;10.87;84.91;98287.88;4957209;29;20050;-62
2022/07/16 03:43:13;;;;;;;6.47;2.90;;;;;;;10.90;84.93;98285.88;4957697;29;20043;-62
2022/07/16 03:45:41;;;;;;;9.27;4.23;;;;;;;10.92;85.05;98283.16;4957321;29;20077;-62
2022/07/16 03:48:08;;;;;;;5.77;2.90;;;;;;;10.95;84.49;98283.81;5010778;28;20053;-62
2022/07/16 03:50:36;;;;;;;5.80;3.07;;;;;;;11.05;83.99;98291.97;5036906;28;20045;-62
2022/07/16 03:53:05;;;;;;;7.47;2.80;;;;;;;11.12;83.30;98291.50;5036938;28;20038;-62
2022/07/16 03:55:32;;;;;;;7.60;2.40;;;;;;;11.19;83.64;98278.81;5036933;28;20049;-62
2022/07/16 03:58:00;;;;;;;6.03;2.90;;;;;;;11.28;82.55;98292.25;5037129;28;20041;-62
2022/07/16 04:00:27;;;;;;;6.90;2.57;;;;;;;11.36;81.67;98289.97;5036835;28;20037;-62
2022/07/16 04:02:55;;;;;;;7.03;2.50;;;;;;;11.44;81.74;98284.22;5036950;28;20045;-62
2022/07/16 04:05:22;;;;;;;4.50;2.43;;;;;;;11.49;81.27;98289.22;5036957;28;20059;-62
2022/07/16 04:07:50;;;;;;;8.20;3.10;;;;;;;11.53;81.04;98288.06;5036781;28;20463;-61
2022/07/16 04:10:19;;;;;;;3.37;2.07;;;;;;;11.58;81.10;98286.81;5036649;28;20037;-62
2022/07/16 04:12:46;;;;;;;6.50;2.70;;;;;;;11.64;80.31;98290.84;5036846;28;20360;-62
2022/07/16 04:15:14;;;;;;;7.37;3.40;;;;;;;11.70;80.73;98286.03;5036755;28;20045;-62
2022/07/16 04:17:41;;;;;;;4.72;2.30;;;;;;;11.74;79.70;98284.88;5036710;28;20052;-62
2022/07/16 04:20:10;;;;;;;5.00;2.30;;;;;;;11.75;80.20;98283.94;5036551;28;20049;-62
2022/07/16 04:22:37;;;;;;;7.07;2.45;;;;;;;11.80;80.13;98286.28;5036789;28;20441;-62
2022/07/16 04:25:06;;;;;;;5.80;2.10;;;;;;;11.87;79.59;98285.78;5036455;28;20132;-62
2022/07/16 04:27:35;;;;;;;7.28;2.28;;;;;;;11.94;79.15;98273.06;5036572;28;20345;-62
2022/07/16 04:30:02;;;;;;;7.13;2.28;;;;;;;12.01;78.90;98275.19;5036503;28;20037;-62
2022/07/16 04:32:30;;;;;;;4.07;2.28;;;;;;;12.09;79.14;98283.47;5036629;28;20076;-62
2022/07/16 04:34:57;;;;;;;6.43;2.08;;;;;;;12.18;78.60;98282.84;5035397;28;20057;-62
2022/07/16 04:37:25;;;;;;;5.38;2.00;;;;;;;12.26;78.26;98285.81;5036529;28;20037;-62
2022/07/16 04:40:13;;;;;;;6.05;2.10;;;;;;;12.41;78.15;98276.03;5036565;28;20045;-62
2022/07/16 04:42:44;;;;;;;7.80;2.55;;;;;;;12.51;78.02;98271.81;5040618;28;20049;-62
2022/07/16 04:45:12;;;;;;;8.57;2.15;;;;;;;12.62;77.62;98280.69;5040731;28;20045;-62
2022/07/16 04:47:40;;;;;;;6.25;2.60;;;;;;;12.73;76.56;98275.53;5040613;28;20130;-62
2022/07/16 04:50:09;;;;;;;5.60;1.98;;;;;;;12.79;77.02;98275.09;5040472;28;20037;-61
2022/07/16 04:52:36;;;;;;;3.03;1.95;;;;;;;12.87;76.56;98282.47;5040473;28;20091;-62
2022/07/16 04:55:05;;;;;;;6.88;2.17;;;;;;;12.90;76.51;98280.50;5040376;28;20160;-62
2022/07/16 04:57:32;;;;;;;9.70;1.95;;;;;;;12.92;76.30;98283.84;5040233;28;20071;-62
2022/07/16 05:00:01;;;;;;;6.10;2.42;;;;;;;12.97;76.69;98284.41;5040108;28;20045;-62
2022/07/16 05:05:13;;;;;;;7.75;2.95;;;;;;;13.09;76.13;98275.63;5059049;28;20052;-61
2022/07/16 05:07:40;;;;;;;4.68;1.90;;;;;;;13.21;76.33;98273.91;5059900;28;20075;-62
2022/07/16 05:10:09;;;;;;;5.30;2.17;;;;;;;13.31;76.21;98274.94;5059993;28;20045;-62
2022/07/16 05:12:37;;;;;;;3.88;2.00;;;;;;;13.39;75.84;98265.53;5059456;28;20336;-61
2022/07/16 05:15:06;;;;;;;7.13;2.38;;;;;;;13.55;75.77;98278.50;5059909;28;20040;-62
2022/07/16 05:17:34;;;;;;;4.75;2.00;;;;;;;13.73;75.68;98275.34;5058751;28;20372;-62
2022/07/16 05:20:02;;;;;;;3.83;2.30;;;;;;;13.85;75.89;98277.09;5059599;28;20115;-62
2022/07/16 05:22:29;;;;;;;5.85;1.65;;;;;;;14.02;75.26;98262.59;5060063;28;20432;-62
2022/07/16 05:24:57;;;;;;;7.78;2.33;;;;;;;14.27;74.92;98273.94;5059619;28;20087;-62
2022/07/16 05:27:24;;;;;;;4.03;2.63;;;;;;;14.43;74.00;98266.53;5060402;28;20056;-62
2022/07/16 05:29:52;;;;;;;3.53;1.67;;;;;;;14.49;73.81;98274.00;5059707;28;20329;-62
2022/07/16 05:32:20;;;;;;;4.97;1.85;;;;;;;14.57;73.82;98277.88;5059696;28;20448;-62
2022/07/16 05:34:48;;;;;;;4.22;1.80;;;;;;;14.66;73.78;98266.56;5054112;28;20096;-61
2022/07/16 05:37:15;;;;;;;3.58;1.88;;;;;;;14.70;73.30;98266.22;5047124;28;20041;-63
2022/07/16 05:39:43;;;;;;;2.97;1.60;;;;;;;14.73;72.58;98262.50;5045116;28;20334;-62
2022/07/16 05:42:10;;;;;;;3.65;1.73;;;;;;;14.83;71.83;98259.00;5039355;28;20034;-62
2022/07/16 05:44:39;;;;;;;8.00;1.90;;;;;;;15.01;71.85;98259.41;5038375;28;20041;-62
2022/07/16 05:47:06;;;;;;;5.43;2.25;;;;;;;15.18;71.65;98256.28;5037825;28;20133;-62
2022/07/16 05:49:35;;;;;;;6.47;1.83;;;;;;;15.30;70.46;98258.78;5038806;28;20037;-62
2022/07/16 05:52:22;;;;;;;3.63;1.92;;;;;;;15.44;69.49;98253.25;5038403;28;20408;-62
2022/07/16 05:54:50;;;;;;;3.03;1.73;;;;;;;15.62;68.74;98248.25;5039544;28;20057;-62
2022/07/16 05:57:17;;;;;;;3.00;1.75;;;;;;;15.74;68.85;98250.75;5038530;28;20125;-62
2022/07/16 05:59:44;;;;;;;5.03;1.95;;;;;;;15.82;66.64;98256.28;5036318;28;20349;-62
2022/07/16 06:02:12;;;;;;;7.28;3.00;;;;;;;15.88;65.66;98244.31;5037000;28;20354;-62
2022/07/16 06:04:41;;;;;;;4.00;1.77;;;;;;;15.95;65.75;98246.34;5037108;28;20384;-62
2022/07/16 06:07:09;;;;;;;2.83;1.38;;;;;;;16.03;66.29;98245.69;5037063;28;20041;-62
2022/07/16 06:09:36;;;;;;;7.03;1.48;;;;;;;16.16;66.14;98244.59;5037081;28;20033;-62
2022/07/16 06:12:04;;;;;;;3.70;1.58;;;;;;;16.20;65.53;98247.84;5037313;28;20042;-62
2022/07/16 06:14:31;;;;;;;7.13;1.27;;;;;;;16.21;65.61;98244.22;5038380;28;20381;-62
2022/07/16 06:16:59;;;;;;;6.13;1.55;;;;;;;16.09;65.50;98253.19;5038760;28;20081;-62
2022/07/16 06:19:26;;;;;;;3.40;1.65;;;;;;;15.98;64.81;98247.91;5038914;28;20045;-61
2022/07/16 06:21:55;;;;;;;4.22;1.38;;;;;;;15.89;64.34;98251.34;5057165;28;20037;-62
2022/07/16 06:24:23;;;;;;;5.15;1.48;;;;;;;15.86;64.96;98248.94;5050707;28;20107;-60
2022/07/16 06:26:50;;;;;;;5.93;1.30;;;;;;;15.89;64.70;98246.84;5049348;28;20033;-62
2022/07/16 06:29:24;;;;;;;3.38;1.58;;;;;;;16.09;64.71;98258.50;5044890;28;20041;-60
2022/07/16 06:31:55;;;;;;;3.28;1.25;;;;;;;16.45;64.58;98258.09;5048792;28;20124;-62
2022/07/16 06:34:25;;;;;;;4.82;1.40;;;;;;;16.96;64.13;98246.53;5048129;28;20129;-61
2022/07/16 06:36:53;;;;;;;5.75;1.80;;;;;;;17.23;63.13;98232.66;5044532;28;20491;-61
2022/07/16 06:39:22;;;;;;;6.03;1.20;;;;;;;17.18;61.52;98234.91;5051041;28;20055;-62
2022/07/16 06:41:49;;;;;;;3.88;1.83;;;;;;;17.29;63.15;98224.16;5057725;28;20037;-61
2022/07/16 06:44:39;;;;;;;5.75;1.55;;;;;;;17.25;60.63;98228.88;5047541;28;20076;-62
2022/07/16 06:47:07;;;;;;;2.88;1.35;;;;;;;17.11;61.35;98237.22;5057952;28;20055;-61
2022/07/16 06:49:34;;;;;;;1.88;1.33;;;;;;;17.24;60.67;98235.19;5050125;28;20042;-62
2022/07/16 06:52:02;;;;;;;8.55;1.45;;;;;;;17.46;60.15;98234.13;5054352;28;20051;-61
2022/07/16 06:54:31;;;;;;;3.50;1.40;;;;;;;17.61;60.03;98230.94;5050856;28;20126;-62
2022/07/16 06:56:58;;;;;;;4.30;1.40;;;;;;;17.80;60.09;98227.50;5046558;28;20057;-61
2022/07/16 06:59:26;;;;;;;3.97;1.33;;;;;;;17.97;59.83;98232.16;5054397;28;20130;-63
2022/07/16 07:01:53;;;;;;;3.00;1.77;;;;;;;17.94;58.94;98223.63;5051852;28;20041;-62
2022/07/16 07:04:20;;;;;;;2.97;0.95;;;;;;;17.87;57.65;98225.97;5055282;28;20044;-63
2022/07/16 07:06:48;;;;;;;2.30;0.88;;;;;;;17.65;57.41;98223.53;5054055;28;20045;-62
2022/07/16 07:09:15;;;;;;;4.15;0.88;;;;;;;17.74;59.35;98217.38;5050834;28;20041;-63
2022/07/16 07:11:44;;;;;;;3.22;0.95;;;;;;;17.99;59.03;98240.84;5053576;28;20083;-61
2022/07/16 07:14:12;;;;;;;2.53;0.93;;;;;;;18.13;57.59;98228.94;5056390;28;20051;-61
2022/07/16 07:16:40;;;;;;;5.50;0.90;;;;;;;18.01;56.34;98222.03;5056297;28;20049;-62
2022/07/16 07:19:07;;;;;;;3.97;1.05;;;;;;;17.91;57.18;98219.38;5056097;28;20440;-61
2022/07/16 07:21:35;;;;;;;5.82;1.15;;;;;;;18.05;57.79;98216.31;5055484;28;20112;-61
2022/07/16 07:24:03;;;;;;;4.50;0.77;;;;;;;18.01;55.85;98216.72;5055283;28;20352;-62
2022/07/16 07:26:30;;;;;;;4.28;1.05;;;;;;;17.86;54.06;98218.13;5055612;28;20049;-62
2022/07/16 07:28:59;;;;;;;3.45;1.30;;;;;;;17.76;54.84;98210.09;5055479;28;20348;-62
2022/07/16 07:31:27;;;;;;;3.08;1.02;;;;;;;17.83;55.23;98211.25;5055197;28;20094;-62
2022/07/16 07:33:54;;;;;;;1.55;0.85;;;;;;;17.99;55.06;98211.56;5055253;28;20052;-61
2022/07/16 07:36:22;;;;;;;2.83;0.90;;;;;;;17.98;53.60;98207.19;5057010;28;20041;-61
2022/07/16 07:38:50;;;;;;;3.03;1.02;;;;;;;17.96;54.17;98203.00;5057499;28;20048;-61
2022/07/16 07:41:17;;;;;;;4.15;1.08;;;;;;;18.11;54.63;98201.59;5057176;28;20041;-60
2022/07/16 07:43:44;;;;;;;2.70;1.10;;;;;;;18.02;54.06;98195.28;5057167;28;20053;-62
2022/07/16 07:46:14;;;;;;;2.92;1.10;;;;;;;17.97;52.93;98196.69;5057216;28;20063;-61
2022/07/16 07:48:41;;;;;;;3.28;0.70;;;;;;;17.84;52.35;98196.97;5057081;28;20411;-62
2022/07/16 07:51:10;;;;;;;2.17;1.08;;;;;;;17.74;52.86;98198.75;5056924;28;20045;-62
2022/07/16 07:53:38;;;;;;;2.03;0.90;;;;;;;17.97;54.48;98194.03;5056964;28;20049;-61
2022/07/16 07:56:06;;;;;;;3.00;1.00;;;;;;;18.10;52.50;98190.13;5056950;28;20052;-61
2022/07/16 07:58:34;;;;;;;2.35;1.02;;;;;;;18.15;52.61;98192.34;5056780;28;20049;-62
2022/07/16 08:01:02;;;;;;;3.65;1.08;;;;;;;18.24;52.61;98197.66;5056354;28;20060;-62
2022/07/16 08:03:31;;;;;;;3.22;1.60;;;;;;;18.43;53.50;98186.97;5056680;28;20048;-62
2022/07/16 08:05:58;;;;;;;2.40;1.23;;;;;;;18.46;54.10;98193.84;5057183;28;20321;-62
2022/07/16 08:08:26;;;;;;;2.70;1.23;;;;;;;18.41;53.11;98185.44;5057274;28;20053;-62
2022/07/16 08:10:53;;;;;;;2.22;0.80;;;;;;;18.43;53.40;98194.94;5056598;28;20384;-62
2022/07/16 08:13:20;;;;;;;2.88;1.15;;;;;;;18.39;53.21;98179.41;5056979;28;20329;-62
2022/07/16 08:15:48;;;;;;;2.25;0.90;;;;;;;18.50;52.89;98182.75;5056359;28;20149;-62
2022/07/16 08:18:15;;;;;;;3.42;1.08;;;;;;;18.62;53.77;98178.97;5056753;28;20324;-61
2022/07/16 08:20:44;;;;;;;4.07;1.25;;;;;;;18.80;53.96;98182.56;5056712;28;20110;-62
2022/07/16 08:23:12;;;;;;;6.07;1.20;;;;;;;19.10;54.58;98176.09;5056721;28;20045;-62
2022/07/16 08:25:47;;;;;;;1.88;1.17;;;;;;;19.36;51.82;98169.09;5056641;28;20064;-62
2022/07/16 08:28:17;;;;;;;4.60;1.30;;;;;;;19.14;51.66;98167.69;5056423;28;20076;-62
2022/07/16 08:30:44;;;;;;;4.70;0.88;;;;;;;19.21;51.63;98174.09;5056264;28;20045;-61
2022/07/16 08:33:12;;;;;;;2.85;0.88;;;;;;;19.04;51.99;98174.03;5056645;28;20041;-62
2022/07/16 08:35:40;;;;;;;2.10;1.02;;;;;;;19.27;51.11;98170.81;5056442;28;20128;-62
2022/07/16 08:38:08;;;;;;;2.97;1.35;;;;;;;19.25;51.41;98164.81;5056680;28;20090;-62
2022/07/16 08:40:41;;;;;;;3.92;1.60;;;;;;;19.49;51.17;98167.75;5056395;28;20052;-62
2022/07/16 08:43:10;;;;;;;3.28;0.80;;;;;;;19.60;50.50;98159.53;5056587;28;20049;-62
2022/07/16 08:45:37;;;;;;;2.03;0.73;;;;;;;19.54;49.17;98167.31;5056617;28;20380;-62
2022/07/16 08:48:06;;;;;;;3.60;1.13;;;;;;;19.41;49.73;98165.00;5056400;28;20075;-62
2022/07/16 08:50:33;;;;;;;2.38;0.88;;;;;;;19.44;49.20;98163.88;5056329;28;20333;-62
2022/07/16 08:53:09;;;;;;;1.60;0.70;;;;;;;19.10;49.61;98160.97;5055036;28;20052;-62
2022/07/16 08:55:38;;;;;;;7.07;0.82;;;;;;;19.05;50.30;98167.72;5056339;28;20124;-62
2022/07/16 08:58:09;;;;;;;4.50;0.77;;;;;;;19.21;50.28;98171.44;5056327;28;20095;-62
2022/07/16 09:00:37;;;;;;;1.88;0.70;;;;;;;19.43;50.39;98165.72;5056179;28;20128;-61
2022/07/16 09:03:04;;;;;;;1.38;1.20;;;;;;;19.64;49.28;98152.91;5056310;28;20055;-62
2022/07/16 09:05:32;;;;;;;2.53;1.08;;;;;;;19.46;49.64;98153.91;5056382;28;20526;-62
2022/07/16 09:07:59;;;;;;;2.10;1.02;;;;;;;19.57;48.76;98159.84;5056251;28;20132;-62
2022/07/16 09:10:36;;;;;;;3.40;1.17;;;;;;;19.38;50.65;98151.94;5056319;28;20049;-61
2022/07/16 09:13:05;;;;;;;4.53;1.13;;;;;;;19.41;50.25;98154.34;5056459;28;20045;-62
2022/07/16 09:15:34;;;;;;;4.88;1.17;;;;;;;19.65;51.46;98151.09;5056105;28;20067;-62
2022/07/16 09:18:40;;;;;;;3.78;0.90;;;;;;;19.96;50.77;98147.03;4995337;28;20169;-62
2022/07/16 09:21:07;;;;;;;5.57;0.80;;;;;;;20.25;49.90;98129.78;4994980;28;20101;-62
2022/07/16 09:23:36;;;;;;;3.60;1.42;;;;;;;20.28;49.15;98140.16;4994887;28;20089;-63
2022/07/16 09:26:07;;;;;;;2.20;0.85;;;;;;;20.44;47.91;98140.25;4995039;28;20073;-62
2022/07/16 09:28:43;;;;;;;2.70;0.98;;;;;;;20.41;48.87;98140.56;4989900;28;20055;-62
2022/07/16 09:31:12;;;;;;;2.58;1.05;;;;;;;20.70;47.50;98140.22;4992217;28;20073;-63
2022/07/16 09:33:39;;;;;;;1.85;0.80;;;;;;;20.67;47.81;98133.38;4994302;28;20142;-62
2022/07/16 09:36:10;;;;;;;2.95;0.85;;;;;;;20.39;48.27;98139.91;4994145;28;20047;-62
2022/07/16 09:38:51;;;;;;;5.50;1.00;;;;;;;20.12;49.15;98145.31;4995601;28;20054;-62
2022/07/16 09:41:22;;;;;;;6.55;1.50;;;;;;;20.01;49.55;98137.56;4993613;28;20149;-62
2022/07/16 09:43:50;;;;;;;1.80;0.80;;;;;;;20.35;49.47;98140.38;4979533;28;20057;-62
2022/07/16 09:46:19;;;;;;;1.33;0.80;;;;;;;20.63;48.17;98131.19;4979009;28;20078;-61
2022/07/16 09:48:47;;;;;;;2.83;0.90;;;;;;;20.60;47.71;98136.84;4991566;28;20065;-62
2022/07/16 09:51:17;;;;;;;3.88;1.27;;;;;;;20.73;47.06;98118.53;5039208;28;20060;-62
2022/07/16 09:53:46;;;;;;;2.40;1.05;;;;;;;20.85;48.10;98132.47;5039318;28;20041;-62
2022/07/16 09:56:25;;;;;;;6.75;1.35;;;;;;;20.69;46.72;98131.38;5045802;28;20123;-61
2022/07/16 09:59:00;;;;;;;3.03;0.90;;;;;;;20.73;48.33;98133.75;5045645;28;20332;-61
2022/07/16 10:01:28;;;;;;;4.65;1.05;;;;;;;20.98;46.76;98127.53;5041326;28;20438;-61
2022/07/16 10:03:56;;;;;;;1.30;0.80;;;;;;;20.99;45.69;98118.53;5047431;28;20052;-61
2022/07/16 10:06:24;;;;;;;3.00;1.15;;;;;;;20.70;46.45;98132.22;5041786;28;20049;-62
2022/07/16 10:08:53;;;;;;;1.17;1.00;;;;;;;20.73;48.34;98123.88;5048336;28;20065;-61
2022/07/16 10:11:22;;;;;;;2.47;1.05;;;;;;;20.60;47.17;98124.31;5048987;28;20048;-62
2022/07/16 10:13:51;;;;;;;2.35;0.93;;;;;;;20.63;49.00;98124.00;5057560;28;20456;-62
2022/07/16 10:16:37;;;;;;;2.95;1.55;;;;;;;20.96;47.64;98117.03;5057178;28;20048;-62
2022/07/16 10:19:05;;;;;;;4.43;1.38;;;;;;;21.35;48.22;98118.13;5056747;28;20041;-61
2022/07/16 10:21:32;;;;;;;7.53;1.30;;;;;;;21.55;47.23;98122.22;5058163;28;20040;-62
2022/07/16 10:24:06;;;;;;;3.88;1.63;;;;;;;21.18;46.14;98115.59;5057951;28;20049;-63
2022/07/16 10:26:36;;;;;;;4.05;0.98;;;;;;;21.05;46.32;98110.69;5056644;28;20059;-62
2022/07/16 10:29:05;;;;;;;3.97;1.15;;;;;;;21.21;46.02;98101.88;5054644;28;20064;-61
2022/07/16 10:31:35;;;;;;;3.20;0.85;;;;;;;21.44;46.96;98108.28;5050706;28;20037;-62
2022/07/16 10:34:39;;;;;;;3.13;1.10;;;;;;;21.39;46.08;98102.59;5050876;28;20057;-60
2022/07/16 10:37:10;;;;;;;2.47;1.00;;;;;;;21.05;46.01;98109.84;5048460;28;20048;-61
2022/07/16 10:39:59;;;;;;;5.22;1.23;;;;;;;21.38;46.89;98101.75;5045269;28;20129;-61
2022/07/16 10:42:31;;;;;;;7.22;1.50;;;;;;;21.90;46.62;98094.28;5047909;28;20056;-61
2022/07/16 10:44:58;;;;;;;2.13;1.20;;;;;;;21.74;46.72;98091.63;5049967;28;20149;-61
2022/07/16 10:47:44;;;;;;;1.45;0.77;;;;;;;21.41;47.09;98088.03;5049195;28;20033;-62
2022/07/16 10:50:17;;;;;;;1.90;0.70;;;;;;;21.09;46.29;98085.28;5049900;28;20056;-61
2022/07/16 10:52:48;;;;;;;2.97;1.02;;;;;;;21.32;48.33;98088.19;5047892;28;20033;-61
2022/07/16 10:55:40;;;;;;;2.42;1.13;;;;;;;21.66;48.35;98080.91;5051521;28;20091;-62
2022/07/16 10:58:09;;;;;;;2.25;1.13;;;;;;;21.54;46.59;98074.19;5055788;28;20087;-62
2022/07/16 11:00:37;;;;;;;3.25;1.17;;;;;;;21.55;45.74;98073.16;5053694;28;20049;-62
2022/07/16 11:03:05;;;;;;;1.80;0.95;;;;;;;21.67;46.32;98066.50;5054304;28;20051;-62
2022/07/16 11:05:33;;;;;;;1.33;0.90;;;;;;;21.45;46.14;98069.81;5055713;28;20336;-63
2022/07/16 11:08:09;;;;;;;3.78;0.88;;;;;;;21.12;46.15;98065.38;5056615;28;20348;-62
2022/07/16 11:10:39;;;;;;;3.88;1.27;;;;;;;20.87;46.04;98071.63;5055674;28;20379;-62
2022/07/16 11:13:17;;;;;;;1.58;1.20;;;;;;;20.76;46.26;98072.75;5055095;28;20124;-62
2022/07/16 11:15:45;;;;;;;3.25;1.05;;;;;;;21.04;46.77;98076.06;5055190;28;20341;-62
2022/07/16 11:18:18;;;;;;;2.33;1.20;;;;;;;21.26;46.86;98064.75;5056226;28;20048;-62
2022/07/16 11:20:46;;;;;;;2.45;1.30;;;;;;;21.49;48.32;98055.94;5056697;28;20053;-62
2022/07/16 11:23:15;;;;;;;4.32;2.03;;;;;;;21.35;45.43;98061.06;5055247;28;20041;-62
2022/07/16 11:26:01;;;;;;;2.15;0.88;;;;;;;21.62;46.62;98052.75;5055093;28;20053;-62
2022/07/16 11:28:30;;;;;;;2.20;1.38;;;;;;;21.54;46.38;98048.22;5055749;28;20098;-62
2022/07/16 11:31:06;;;;;;;2.55;1.67;;;;;;;21.60;46.31;98062.78;5043290;28;20071;-62
2022/07/16 11:33:35;;;;;;;2.65;1.20;;;;;;;21.47;46.77;98067.81;5038284;28;20397;-63
2022/07/16 11:36:08;;;;;;;4.22;1.20;;;;;;;21.41;46.29;98065.78;5042288;28;20041;-63
2022/07/16 11:38:37;;;;;;;6.28;2.35;;;;;;;21.37;46.87;98059.94;5054436;28;20044;-62
2022/07/16 11:41:05;;;;;;;2.38;1.00;;;;;;;21.07;46.11;98057.03;5054180;28;20044;-62
2022/07/16 11:43:34;;;;;;;7.60;1.67;;;;;;;20.94;47.49;98057.47;5054819;28;20079;-62
2022/07/16 11:46:02;;;;;;;2.03;1.17;;;;;;;20.92;48.86;98070.16;5055779;28;20342;-62
2022/07/16 11:48:37;;;;;;;3.15;1.17;;;;;;;20.71;47.39;98072.41;5055919;28;20053;-63
2022/07/16 11:51:25;;;;;;;4.80;1.10;;;;;;;20.33;48.76;98073.69;5053435;28;20089;-62
2022/07/16 11:53:53;;;;;;;7.50;1.30;;;;;;;20.22;50.29;98081.13;5055509;28;20099;-62